Time;durP1;ratioP1;P1;durP2;ratioP2;P2;SDS_P1;SDS_P2;PMS_P1;PMS_P2;Temp;Humidity;BMP_temperature;BMP_pressure;BME280_temperature;BME280_humidity;BME280_pressure;Samples;Min_cycle;Max_cycle;Signal;HPM_P1;HPM_P2
2022/08/09 00:00:18;;;;;;;3.33;3.00;;;12.00;99.90;;;;;;5002454;28;20068;-70
2022/08/09 00:02:45;;;;;;;3.65;3.30;;;12.00;99.90;;;;;;5002786;28;20104;-76
2022/08/09 00:05:16;;;;;;;4.28;3.65;;;12.00;99.90;;;;;;5001678;28;20046;-67
2022/08/09 00:08:05;;;;;;;5.70;4.90;;;12.00;99.90;;;;;;5003564;28;20053;-69
2022/08/09 00:10:37;;;;;;;7.10;3.80;;;12.00;99.90;;;;;;5002987;28;20041;-67
2022/08/09 00:13:05;;;;;;;4.05;3.22;;;11.90;99.90;;;;;;5002142;28;20095;-74
2022/08/09 00:15:45;;;;;;;5.22;3.63;;;11.90;99.90;;;;;;4980525;28;20057;-67
2022/08/09 00:18:32;;;;;;;4.22;3.83;;;11.90;99.90;;;;;;4982758;28;20053;-68
2022/08/09 00:21:06;;;;;;;4.95;3.50;;;11.90;99.90;;;;;;4984300;28;20039;-69
2022/08/09 00:23:35;;;;;;;5.55;3.95;;;11.90;99.90;;;;;;5006594;28;20505;-67
2022/08/09 00:26:22;;;;;;;7.00;4.07;;;11.90;99.90;;;;;;4996227;28;20053;-67
2022/08/09 00:29:00;;;;;;;3.28;2.95;;;11.90;99.90;;;;;;4983325;28;20038;-73
2022/08/09 00:31:28;;;;;;;3.38;3.08;;;11.90;99.90;;;;;;4985241;28;20053;-67
2022/08/09 00:34:15;;;;;;;3.63;3.33;;;11.90;99.90;;;;;;5003914;28;20076;-72
2022/08/09 00:36:46;;;;;;;5.40;3.67;;;11.90;99.90;;;;;;5004195;28;20123;-72
2022/08/09 00:39:14;;;;;;;5.25;3.33;;;11.90;99.90;;;;;;5001975;28;20084;-73
2022/08/09 00:42:02;;;;;;;5.00;3.83;;;11.90;99.90;;;;;;5001430;28;20153;-68
2022/08/09 00:44:48;;;;;;;6.35;4.32;;;11.80;99.90;;;;;;5002975;28;20074;-71
2022/08/09 00:47:15;;;;;;;3.28;2.97;;;11.80;99.90;;;;;;5000570;28;20119;-69
2022/08/09 00:49:45;;;;;;;5.35;3.28;;;11.80;99.90;;;;;;5001870;28;20069;-75
2022/08/09 00:52:21;;;;;;;7.57;2.97;;;11.80;99.90;;;;;;5002145;28;20054;-69
2022/08/09 00:54:58;;;;;;;3.65;2.90;;;11.80;99.90;;;;;;5002110;28;20705;-72
2022/08/09 00:57:28;;;;;;;6.13;3.28;;;11.70;99.90;;;;;;4999454;28;20095;-69
2022/08/09 01:00:07;;;;;;;3.33;3.03;;;11.70;99.90;;;;;;5001129;28;20442;-67
2022/08/09 01:03:26;;;;;;;3.85;3.08;;;11.70;99.90;;;;;;5000624;28;20038;-69
2022/08/09 01:06:09;;;;;;;5.00;2.80;;;11.70;99.90;;;;;;4979723;28;20150;-67
2022/08/09 01:08:45;;;;;;;6.50;3.07;;;11.70;99.90;;;;;;4998483;28;20075;-70
2022/08/09 01:11:29;;;;;;;4.10;3.05;;;11.60;99.90;;;;;;5000792;28;20042;-72
2022/08/09 01:14:01;;;;;;;4.57;3.40;;;11.60;99.90;;;;;;5001809;28;20054;-71
2022/08/09 01:16:40;;;;;;;6.50;4.20;;;11.60;99.90;;;;;;5001262;28;20050;-68
2022/08/09 01:19:28;;;;;;;4.57;3.53;;;11.60;99.90;;;;;;4999736;28;20151;-70
2022/08/09 01:22:53;;;;;;;6.13;3.85;;;11.50;99.90;;;;;;5001002;28;20046;-71
2022/08/09 01:25:51;;;;;;;6.03;3.63;;;11.50;99.90;;;;;;4999581;28;20081;-67
2022/08/09 01:28:20;;;;;;;4.03;3.60;;;11.50;99.90;;;;;;5000632;28;20065;-69
2022/08/09 01:30:50;;;;;;;11.20;3.67;;;11.50;99.90;;;;;;5001040;28;20049;-66
2022/08/09 01:33:24;;;;;;;3.90;3.50;;;11.50;99.90;;;;;;4999725;28;20141;-70
2022/08/09 01:36:12;;;;;;;3.88;3.30;;;11.50;99.90;;;;;;5004405;28;20100;-69
2022/08/09 01:38:45;;;;;;;4.30;3.50;;;11.50;99.90;;;;;;5005290;28;20053;-75
2022/08/09 01:41:26;;;;;;;4.93;3.35;;;11.40;99.90;;;;;;5004436;28;20169;-68
2022/08/09 01:43:56;;;;;;;4.38;3.47;;;11.40;99.90;;;;;;5005220;28;20136;-70
2022/08/09 01:46:37;;;;;;;3.77;3.47;;;11.40;99.90;;;;;;5004515;28;20050;-67
2022/08/09 01:49:06;;;;;;;4.20;3.40;;;11.40;99.90;;;;;;5005875;28;20045;-69
2022/08/09 01:51:42;;;;;;;4.30;3.90;;;11.40;99.90;;;;;;5003915;28;20152;-72
2022/08/09 01:54:21;;;;;;;5.10;3.83;;;11.40;99.90;;;;;;5003806;28;20038;-72
2022/08/09 01:56:50;;;;;;;5.03;4.63;;;11.40;99.90;;;;;;5003317;28;20061;-70
2022/08/09 01:59:20;;;;;;;4.32;3.95;;;11.30;99.90;;;;;;5004720;28;20403;-72
2022/08/09 02:01:52;;;;;;;3.97;3.38;;;11.40;99.90;;;;;;5006047;28;20046;-72
2022/08/09 02:04:27;;;;;;;7.57;3.53;;;11.30;99.90;;;;;;5003605;28;20049;-71
2022/08/09 02:07:14;;;;;;;5.40;3.40;;;11.30;99.90;;;;;;5005235;28;20103;-70
2022/08/09 02:10:12;;;;;;;4.43;3.13;;;11.30;99.90;;;;;;4983978;28;20163;-67
2022/08/09 02:12:42;;;;;;;5.63;4.05;;;11.30;99.90;;;;;;5002148;28;20507;-68
2022/08/09 02:15:11;;;;;;;3.47;2.70;;;11.30;99.90;;;;;;5005565;28;20092;-69
2022/08/09 02:17:47;;;;;;;4.13;2.92;;;11.30;99.90;;;;;;5003418;28;20546;-69
2022/08/09 02:20:39;;;;;;;3.20;3.00;;;11.20;99.90;;;;;;5001309;28;20357;-70
2022/08/09 02:23:18;;;;;;;6.30;3.35;;;11.20;99.90;;;;;;5003716;28;20053;-67
2022/08/09 02:25:49;;;;;;;2.90;2.67;;;11.20;99.90;;;;;;5007768;28;20062;-73
2022/08/09 02:28:33;;;;;;;3.58;3.28;;;11.20;99.90;;;;;;5002717;28;20041;-69
2022/08/09 02:31:19;;;;;;;2.97;2.70;;;11.20;99.90;;;;;;5004362;28;20475;-66
2022/08/09 02:33:48;;;;;;;4.68;3.25;;;11.20;99.90;;;;;;5004645;28;20136;-67
2022/08/09 02:36:42;;;;;;;4.68;3.30;;;11.20;99.90;;;;;;5008661;28;20064;-67
2022/08/09 02:39:14;;;;;;;3.88;2.90;;;11.20;99.90;;;;;;5004006;28;20073;-73
2022/08/09 02:42:00;;;;;;;4.93;3.13;;;11.30;99.90;;;;;;5003158;28;20049;-68
2022/08/09 02:44:39;;;;;;;5.05;3.50;;;11.30;99.90;;;;;;5004513;28;20068;-71
2022/08/09 02:47:10;;;;;;;4.35;3.65;;;11.20;99.90;;;;;;5003807;28;20054;-67
2022/08/09 02:49:48;;;;;;;3.85;3.53;;;11.20;99.90;;;;;;5005645;28;20048;-71
2022/08/09 02:52:37;;;;;;;5.40;3.33;;;11.20;99.90;;;;;;4998151;28;20216;-67
2022/08/09 02:55:07;;;;;;;3.65;2.70;;;11.20;99.90;;;;;;4984657;28;20053;-67
2022/08/09 02:57:49;;;;;;;4.32;3.03;;;11.20;99.90;;;;;;5001604;28;21428;-69
2022/08/09 03:00:39;;;;;;;5.10;4.10;;;11.20;99.90;;;;;;5007460;28;20755;-67
2022/08/09 03:03:26;;;;;;;6.40;2.75;;;11.20;99.90;;;;;;5002413;28;20065;-67
2022/08/09 03:06:14;;;;;;;3.58;3.17;;;11.20;99.90;;;;;;5002809;28;20061;-69
2022/08/09 03:08:45;;;;;;;5.50;3.58;;;11.20;99.90;;;;;;5002677;28;20082;-66
2022/08/09 03:11:19;;;;;;;4.40;3.25;;;11.20;99.90;;;;;;5000654;28;20125;-72
2022/08/09 03:14:07;;;;;;;6.18;2.97;;;11.20;99.90;;;;;;5002869;28;20746;-66
2022/08/09 03:16:37;;;;;;;4.10;3.60;;;11.20;99.90;;;;;;5003204;28;20077;-68
2022/08/09 03:19:12;;;;;;;3.30;2.47;;;11.20;99.90;;;;;;5001892;28;20283;-66
2022/08/09 03:21:59;;;;;;;4.38;3.45;;;11.20;99.90;;;;;;5004297;28;20040;-67
2022/08/09 03:24:29;;;;;;;3.83;3.22;;;11.30;99.90;;;;;;5003911;28;20845;-67
2022/08/09 03:27:16;;;;;;;3.33;3.03;;;11.30;99.90;;;;;;5002738;28;20045;-67
2022/08/09 03:29:50;;;;;;;5.35;2.85;;;11.30;99.90;;;;;;5002797;28;20045;-69
2022/08/09 03:32:33;;;;;;;4.30;3.42;;;11.30;99.90;;;;;;5004187;28;20129;-71
2022/08/09 03:35:04;;;;;;;5.20;3.38;;;11.30;99.90;;;;;;5003849;28;20034;-67
2022/08/09 03:37:52;;;;;;;4.78;3.47;;;11.30;99.90;;;;;;4982324;28;20783;-67
2022/08/09 03:40:24;;;;;;;4.85;3.88;;;11.30;99.90;;;;;;4997952;28;20048;-68
2022/08/09 03:42:56;;;;;;;4.75;3.45;;;11.40;99.90;;;;;;5010388;28;20086;-68
2022/08/09 03:45:23;;;;;;;3.67;3.05;;;11.30;99.90;;;;;;5001003;28;20135;-71
2022/08/09 03:48:10;;;;;;;3.13;2.83;;;11.30;99.90;;;;;;5003601;28;20061;-66
2022/08/09 03:50:45;;;;;;;6.80;4.40;;;11.30;99.90;;;;;;5003317;28;20050;-66
2022/08/09 03:53:15;;;;;;;4.20;3.15;;;11.40;99.90;;;;;;5001514;28;20057;-71
2022/08/09 03:55:47;;;;;;;5.50;4.20;;;11.40;99.90;;;;;;5003816;28;20069;-71
2022/08/09 03:58:15;;;;;;;4.00;3.60;;;11.40;99.90;;;;;;5001493;28;20500;-72
2022/08/09 04:00:44;;;;;;;3.90;3.45;;;11.40;99.90;;;;;;5002724;28;20060;-68
2022/08/09 04:03:15;;;;;;;3.83;3.33;;;11.50;99.90;;;;;;4984312;28;20058;-71
2022/08/09 04:06:02;;;;;;;3.78;3.22;;;11.60;99.90;;;;;;5008166;28;20057;-66
2022/08/09 04:08:31;;;;;;;3.55;3.25;;;11.60;99.90;;;;;;5004704;28;20041;-70
2022/08/09 04:10:59;;;;;;;5.90;4.20;;;11.70;99.90;;;;;;5002121;28;20082;-72
2022/08/09 04:13:28;;;;;;;5.60;3.65;;;11.70;99.90;;;;;;4997684;28;20049;-67
2022/08/09 04:16:15;;;;;;;4.38;3.97;;;11.70;99.90;;;;;;4983729;28;20050;-70
2022/08/09 04:18:47;;;;;;;5.68;3.65;;;11.80;99.90;;;;;;4999400;28;20172;-68
2022/08/09 04:21:17;;;;;;;3.92;3.63;;;11.80;99.90;;;;;;5000720;28;20041;-66
2022/08/09 04:23:45;;;;;;;5.05;3.65;;;11.80;99.90;;;;;;5000150;28;20049;-73
2022/08/09 04:26:24;;;;;;;4.55;3.28;;;11.80;99.90;;;;;;5002564;28;20048;-70
2022/08/09 04:29:03;;;;;;;3.35;3.05;;;11.90;99.90;;;;;;5002008;28;20150;-68
2022/08/09 04:31:40;;;;;;;6.00;3.42;;;11.90;99.90;;;;;;5000743;28;20045;-67
2022/08/09 04:34:13;;;;;;;3.13;2.83;;;12.00;99.90;;;;;;5001651;28;20046;-72
2022/08/09 04:36:56;;;;;;;4.40;3.47;;;12.10;99.90;;;;;;5007371;28;20065;-70
2022/08/09 04:39:23;;;;;;;4.25;3.30;;;12.10;99.90;;;;;;5000721;28;20087;-68
2022/08/09 04:41:56;;;;;;;4.97;4.53;;;12.20;99.90;;;;;;5001754;28;20068;-67
2022/08/09 04:44:28;;;;;;;4.30;3.38;;;12.20;99.90;;;;;;4990990;28;20528;-68
2022/08/09 04:46:56;;;;;;;4.00;3.38;;;12.30;99.90;;;;;;5001360;28;20518;-72
2022/08/09 04:49:32;;;;;;;5.35;4.47;;;12.40;99.90;;;;;;4980934;28;20116;-67
2022/08/09 04:52:24;;;;;;;4.15;3.50;;;12.50;99.90;;;;;;4992535;28;20048;-66
2022/08/09 04:55:00;;;;;;;5.47;3.30;;;12.50;99.90;;;;;;5002493;28;20151;-66
2022/08/09 04:57:29;;;;;;;7.88;4.20;;;12.60;99.90;;;;;;5000544;28;20169;-72
2022/08/09 05:00:16;;;;;;;8.23;4.47;;;12.80;99.90;;;;;;5003260;28;20768;-69
2022/08/09 05:02:44;;;;;;;7.30;4.25;;;12.80;99.90;;;;;;5003077;28;20156;-70
2022/08/09 05:05:18;;;;;;;4.63;3.97;;;12.90;99.90;;;;;;5001448;28;20077;-67
2022/08/09 05:08:05;;;;;;;4.93;3.53;;;13.00;99.90;;;;;;5002680;28;20038;-66
2022/08/09 05:10:33;;;;;;;4.47;3.67;;;13.10;99.90;;;;;;5004037;28;20049;-67
2022/08/09 05:13:02;;;;;;;4.70;4.30;;;13.30;99.90;;;;;;5006847;28;20049;-67
2022/08/09 05:15:29;;;;;;;7.10;4.38;;;13.40;99.90;;;;;;5004779;28;20199;-67
2022/08/09 05:18:14;;;;;;;5.80;4.60;;;13.50;99.90;;;;;;5005651;28;20103;-68
2022/08/09 05:21:01;;;;;;;7.07;3.97;;;13.60;99.90;;;;;;5006014;28;20123;-69
2022/08/09 05:23:39;;;;;;;4.05;3.33;;;13.70;99.90;;;;;;5011148;28;20057;-68
2022/08/09 05:26:24;;;;;;;4.15;3.42;;;13.80;99.90;;;;;;5007723;28;20784;-66
2022/08/09 05:29:01;;;;;;;6.97;3.90;;;13.90;99.90;;;;;;5004909;28;20195;-69
2022/08/09 05:31:28;;;;;;;5.40;3.13;;;14.10;99.90;;;;;;5003756;28;20045;-72
2022/08/09 05:34:15;;;;;;;4.78;3.75;;;14.20;99.90;;;;;;5004422;28;20762;-73
2022/08/09 05:36:43;;;;;;;4.03;3.60;;;14.20;99.90;;;;;;5004134;28;20052;-70
2022/08/09 05:39:14;;;;;;;6.28;4.43;;;14.40;99.90;;;;;;5001427;28;20065;-67
2022/08/09 05:41:56;;;;;;;3.97;3.58;;;14.40;99.90;;;;;;5000697;28;20080;-72
2022/08/09 05:44:30;;;;;;;8.25;4.72;;;14.60;99.90;;;;;;4999660;28;20053;-71
2022/08/09 05:47:00;;;;;;;5.32;4.85;;;14.80;99.90;;;;;;4998193;28;20240;-73
2022/08/09 05:49:31;;;;;;;5.35;3.72;;;15.00;99.90;;;;;;4993728;28;20058;-69
2022/08/09 05:52:18;;;;;;;7.07;3.45;;;15.10;99.90;;;;;;4980727;28;20053;-69
2022/08/09 05:54:46;;;;;;;5.15;3.08;;;15.20;99.90;;;;;;4998487;28;20073;-72
2022/08/09 05:57:15;;;;;;;3.67;2.63;;;15.30;99.90;;;;;;4981997;28;20058;-69
2022/08/09 05:59:45;;;;;;;6.78;3.13;;;15.50;99.90;;;;;;4982314;28;20167;-68
2022/08/09 06:02:12;;;;;;;4.45;4.05;;;15.50;99.90;;;;;;4979906;28;20505;-69
2022/08/09 06:04:44;;;;;;;2.72;2.25;;;15.50;99.90;;;;;;4998110;28;20149;-72
2022/08/09 06:07:12;;;;;;;7.90;3.95;;;15.60;99.90;;;;;;4998716;28;20876;-75
2022/08/09 06:09:48;;;;;;;3.90;2.92;;;15.60;99.90;;;;;;4995845;28;20140;-69
2022/08/09 06:12:27;;;;;;;6.60;2.50;;;15.70;99.90;;;;;;4995908;28;20060;-72
2022/08/09 06:14:54;;;;;;;7.82;3.45;;;15.80;99.90;;;;;;4997687;28;20069;-69
2022/08/09 06:17:27;;;;;;;4.93;3.10;;;16.00;99.90;;;;;;4999942;28;20049;-67
2022/08/09 06:20:07;;;;;;;4.17;2.33;;;16.10;99.90;;;;;;5000831;28;20065;-67
2022/08/09 06:22:34;;;;;;;4.13;2.47;;;16.20;99.90;;;;;;4997992;28;20054;-67
2022/08/09 06:25:02;;;;;;;3.60;2.72;;;16.30;99.90;;;;;;4998435;28;20064;-68
2022/08/09 06:27:29;;;;;;;5.85;3.45;;;16.40;99.90;;;;;;4998233;28;20050;-70
2022/08/09 06:30:16;;;;;;;3.30;2.22;;;16.40;99.90;;;;;;4998095;28;20034;-70
2022/08/09 06:32:44;;;;;;;3.78;3.13;;;16.50;99.90;;;;;;4994645;28;20056;-69
2022/08/09 06:35:31;;;;;;;4.90;2.58;;;16.60;99.90;;;;;;4991747;28;20099;-68
2022/08/09 06:38:18;;;;;;;2.85;2.65;;;16.60;99.90;;;;;;4993610;28;20746;-71
2022/08/09 06:40:57;;;;;;;3.47;2.50;;;16.70;99.90;;;;;;4992062;28;20042;-69
2022/08/09 06:43:26;;;;;;;4.07;2.72;;;16.80;99.90;;;;;;4992608;28;20073;-70
2022/08/09 06:46:00;;;;;;;3.90;2.92;;;16.90;99.90;;;;;;4991386;28;20061;-68
2022/08/09 06:48:36;;;;;;;4.03;2.35;;;16.90;99.90;;;;;;4981242;28;20085;-72
2022/08/09 06:51:12;;;;;;;6.80;2.60;;;16.90;99.90;;;;;;4979317;28;20054;-69
2022/08/09 06:53:40;;;;;;;4.95;2.95;;;16.90;99.90;;;;;;4992984;28;20140;-67
2022/08/09 06:56:07;;;;;;;6.43;3.92;;;16.90;99.90;;;;;;4995763;28;20137;-70
2022/08/09 06:58:36;;;;;;;2.92;2.28;;;17.00;99.90;;;;;;4994800;28;20069;-70
2022/08/09 07:01:23;;;;;;;3.33;2.15;;;17.00;99.90;;;;;;4991849;28;20052;-68
2022/08/09 07:04:10;;;;;;;5.57;2.97;;;17.00;99.90;;;;;;4993949;28;20065;-67
2022/08/09 07:06:46;;;;;;;2.78;2.45;;;17.20;99.90;;;;;;4993252;28;20200;-67
2022/08/09 07:09:19;;;;;;;4.30;2.50;;;17.30;99.90;;;;;;4990987;28;20076;-70
2022/08/09 07:12:06;;;;;;;2.90;2.15;;;17.30;99.90;;;;;;4995390;28;20472;-73
2022/08/09 07:14:43;;;;;;;4.50;3.03;;;17.50;99.90;;;;;;4992204;28;20740;-70
2022/08/09 07:17:10;;;;;;;5.25;2.47;;;17.70;99.90;;;;;;4991200;28;20108;-71
2022/08/09 07:19:37;;;;;;;2.83;2.63;;;17.80;99.90;;;;;;4989374;28;20208;-67
2022/08/09 07:22:04;;;;;;;4.38;2.78;;;17.90;99.90;;;;;;4991277;28;20078;-70
2022/08/09 07:24:32;;;;;;;5.80;2.90;;;17.90;99.90;;;;;;4993765;28;20136;-68
2022/08/09 07:27:10;;;;;;;2.47;2.25;;;17.90;99.90;;;;;;4992486;28;20686;-73
2022/08/09 07:29:58;;;;;;;3.65;2.22;;;18.00;99.90;;;;;;4991457;28;20064;-67
2022/08/09 07:32:28;;;;;;;3.92;3.05;;;18.10;99.90;;;;;;4990639;28;20054;-71
2022/08/09 07:35:11;;;;;;;3.30;2.13;;;18.20;99.90;;;;;;4993939;28;21645;-67
2022/08/09 07:37:40;;;;;;;4.68;2.78;;;18.10;99.90;;;;;;4989802;28;20065;-72
2022/08/09 07:40:15;;;;;;;2.55;2.35;;;18.00;99.90;;;;;;4992378;28;20152;-70
2022/08/09 07:42:46;;;;;;;3.55;3.25;;;18.00;99.90;;;;;;4992396;28;20384;-73
2022/08/09 07:45:16;;;;;;;3.33;2.47;;;18.10;99.90;;;;;;4986946;28;20053;-69
2022/08/09 07:48:03;;;;;;;3.65;3.05;;;18.00;99.90;;;;;;4990867;28;20056;-72
2022/08/09 07:50:31;;;;;;;3.67;2.58;;;18.00;99.90;;;;;;4989211;28;20633;-74
2022/08/09 07:53:02;;;;;;;3.75;2.97;;;17.90;99.90;;;;;;4990542;28;20084;-73
2022/08/09 07:55:31;;;;;;;3.78;2.72;;;17.90;99.90;;;;;;4990256;28;20329;-71
2022/08/09 07:58:18;;;;;;;3.75;3.30;;;18.00;99.90;;;;;;4989667;28;20052;-72
2022/08/09 08:00:52;;;;;;;3.65;2.90;;;18.10;99.90;;;;;;4990285;28;20045;-70
2022/08/09 08:03:32;;;;;;;3.05;2.65;;;18.20;99.90;;;;;;4986539;28;20046;-71
2022/08/09 08:06:03;;;;;;;4.18;2.92;;;18.30;99.90;;;;;;4989401;28;20169;-74
2022/08/09 08:08:30;;;;;;;4.95;3.05;;;18.30;99.90;;;;;;4989809;28;20050;-70
2022/08/09 08:11:17;;;;;;;5.43;3.00;;;18.40;99.90;;;;;;4987512;28;20695;-76
2022/08/09 08:14:05;;;;;;;2.40;2.20;;;18.40;99.90;;;;;;4989764;28;20042;-70
2022/08/09 08:16:32;;;;;;;3.28;2.50;;;18.40;99.90;;;;;;4989433;28;20480;-75
2022/08/09 08:19:00;;;;;;;3.70;2.47;;;18.40;99.90;;;;;;4990380;28;20097;-73
2022/08/09 08:21:30;;;;;;;2.73;2.17;;;18.50;99.90;;;;;;4988519;28;21467;-69
2022/08/09 08:23:57;;;;;;;2.78;2.58;;;18.60;99.90;;;;;;4988377;28;21493;-70
2022/08/09 08:26:37;;;;;;;5.47;3.58;;;18.60;99.90;;;;;;4990302;28;20090;-70
2022/08/09 08:29:23;;;;;;;3.17;2.88;;;18.60;99.90;;;;;;4988192;28;20125;-67
2022/08/09 08:31:55;;;;;;;3.67;2.25;;;18.50;99.90;;;;;;4989110;28;20046;-71
2022/08/09 08:34:30;;;;;;;5.60;3.03;;;18.50;99.90;;;;;;4988993;28;20046;-67
2022/08/09 08:37:00;;;;;;;3.63;3.35;;;18.60;99.90;;;;;;4990965;28;20111;-73
2022/08/09 08:39:27;;;;;;;3.95;2.72;;;18.60;99.90;;;;;;4986224;28;20041;-71
2022/08/09 08:42:04;;;;;;;3.00;2.35;;;18.60;99.90;;;;;;4989585;28;20169;-68
2022/08/09 08:44:36;;;;;;;3.03;2.70;;;18.70;99.90;;;;;;4990934;28;20143;-68
2022/08/09 08:47:06;;;;;;;4.68;2.30;;;18.80;99.90;;;;;;4993120;28;20070;-74
2022/08/09 08:49:40;;;;;;;1.98;1.88;;;18.90;99.90;;;;;;4993237;28;20042;-69
2022/08/09 08:52:19;;;;;;;3.85;2.55;;;18.90;99.90;;;;;;4993894;28;20141;-75
2022/08/09 08:55:07;;;;;;;3.30;2.05;;;19.10;99.90;;;;;;4993152;28;20093;-72
2022/08/09 08:57:34;;;;;;;4.30;2.30;;;19.10;99.90;;;;;;4993504;28;20107;-72
2022/08/09 09:00:06;;;;;;;2.95;2.08;;;19.10;99.90;;;;;;4992510;28;20134;-70
2022/08/09 09:02:49;;;;;;;2.40;2.20;;;19.10;99.90;;;;;;4993510;28;20046;-74
2022/08/09 09:05:22;;;;;;;3.60;2.45;;;19.00;99.90;;;;;;4992646;28;20078;-72
2022/08/09 09:08:12;;;;;;;3.70;2.30;;;19.00;99.90;;;;;;4991947;28;20049;-67
2022/08/09 09:11:01;;;;;;;4.03;3.05;;;19.00;99.90;;;;;;4992507;28;20056;-69
2022/08/09 09:13:38;;;;;;;3.30;2.08;;;19.10;99.90;;;;;;4990516;28;20081;-69
2022/08/09 09:16:28;;;;;;;4.38;2.08;;;19.20;99.90;;;;;;4993028;28;20053;-70
2022/08/09 09:18:58;;;;;;;2.88;2.13;;;19.40;99.90;;;;;;4995499;28;20050;-71
2022/08/09 09:22:09;;;;;;;2.47;2.28;;;19.50;99.90;;;;;;4992456;28;20786;-73
2022/08/09 09:24:53;;;;;;;2.78;2.58;;;19.50;99.90;;;;;;4993430;28;20498;-68
2022/08/09 09:27:40;;;;;;;3.05;2.75;;;19.50;99.90;;;;;;4993374;28;20151;-67
2022/08/09 09:30:27;;;;;;;4.05;3.38;;;19.60;99.90;;;;;;4993178;28;20046;-67
2022/08/09 09:33:13;;;;;;;3.88;2.30;;;19.60;99.90;;;;;;4992362;28;20046;-73
2022/08/09 09:36:11;;;;;;;2.30;2.13;;;19.60;99.90;;;;;;4992054;28;20060;-69
2022/08/09 09:39:01;;;;;;;4.28;2.88;;;19.70;99.90;;;;;;4992668;28;20354;-68
2022/08/09 09:41:33;;;;;;;2.38;2.17;;;19.70;99.90;;;;;;4993540;28;20061;-67
2022/08/09 09:44:28;;;;;;;3.60;2.55;;;19.70;99.90;;;;;;4991735;28;20489;-70
2022/08/09 09:47:10;;;;;;;2.75;2.30;;;20.00;99.90;;;;;;4992371;28;20077;-73
2022/08/09 09:49:38;;;;;;;2.33;2.13;;;19.80;99.90;;;;;;4991174;28;20046;-68
2022/08/09 09:52:28;;;;;;;2.15;1.73;;;19.80;99.90;;;;;;4992388;28;20050;-70
2022/08/09 09:55:08;;;;;;;2.10;1.90;;;19.80;99.90;;;;;;4993577;28;20057;-70
2022/08/09 09:58:00;;;;;;;2.95;1.90;;;20.00;99.90;;;;;;4991394;28;21053;-69
2022/08/09 10:00:54;;;;;;;5.75;1.90;;;19.90;99.90;;;;;;4992293;28;20351;-70
2022/08/09 10:03:49;;;;;;;2.38;1.77;;;20.00;99.90;;;;;;4992128;28;20072;-70
2022/08/09 10:06:40;;;;;;;3.17;2.45;;;19.80;99.90;;;;;;4993041;28;20088;-72
2022/08/09 10:09:11;;;;;;;3.10;1.88;;;20.00;99.90;;;;;;4992273;28;20561;-71
2022/08/09 10:11:57;;;;;;;;;;;20.10;99.90;;;;;;4980856;28;20045;-70
2022/08/09 10:14:39;;;;;;;1.77;1.58;;;20.20;99.90;;;;;;4992759;28;19936;-69
2022/08/09 10:17:16;;;;;;;4.03;2.20;;;20.30;99.90;;;;;;4991719;28;20136;-71
2022/08/09 10:20:20;;;;;;;4.18;2.33;;;20.40;99.90;;;;;;4991968;28;20050;-71
2022/08/09 10:23:13;;;;;;;8.05;2.22;;;20.30;99.90;;;;;;4993233;28;20051;-69
2022/08/09 10:25:45;;;;;;;2.38;2.17;;;20.50;99.90;;;;;;4971125;28;20440;-72
2022/08/09 10:28:33;;;;;;;2.65;1.95;;;20.60;99.90;;;;;;4972753;28;20054;-69
2022/08/09 10:31:00;;;;;;;2.45;2.13;;;20.40;99.90;;;;;;4973483;28;20596;-71
2022/08/09 10:33:48;;;;;;;3.53;1.60;;;20.40;99.90;;;;;;4989584;28;20396;-70
2022/08/09 10:36:36;;;;;;;2.70;1.40;;;20.50;99.90;;;;;;4992688;28;20047;-71
2022/08/09 10:39:03;;;;;;;2.45;1.85;;;20.30;99.90;;;;;;4991012;28;20678;-71
2022/08/09 10:41:40;;;;;;;2.70;2.10;;;20.50;99.90;;;;;;4990641;28;20050;-74
2022/08/09 10:44:09;;;;;;;4.57;1.98;;;20.50;99.90;;;;;;4990839;28;20072;-71
2022/08/09 10:46:50;;;;;;;4.05;1.77;;;20.60;99.90;;;;;;4992591;28;20050;-70
2022/08/09 10:49:35;;;;;;;4.65;1.73;;;20.60;99.90;;;;;;4990109;28;20560;-70
2022/08/09 10:52:26;;;;;;;2.63;2.13;;;20.70;99.90;;;;;;4992022;28;20104;-72
2022/08/09 10:54:54;;;;;;;2.28;1.92;;;20.70;99.90;;;;;;4992304;28;20500;-68
2022/08/09 10:57:32;;;;;;;1.90;1.75;;;20.40;99.90;;;;;;4989715;28;20535;-75
2022/08/09 11:00:32;;;;;;;3.70;2.22;;;20.30;99.90;;;;;;4991807;28;20554;-68
2022/08/09 11:02:59;;;;;;;2.10;1.90;;;20.50;99.90;;;;;;4990757;28;20324;-71
2022/08/09 11:06:17;;;;;;;2.33;1.65;;;20.70;99.90;;;;;;4990022;28;20046;-71
2022/08/09 11:08:46;;;;;;;2.28;2.05;;;20.60;99.90;;;;;;4991479;28;20112;-69
2022/08/09 11:11:20;;;;;;;1.70;1.52;;;20.70;99.90;;;;;;4990560;28;20491;-71
2022/08/09 11:14:25;;;;;;;4.95;2.60;;;21.00;99.90;;;;;;4991221;28;20591;-69
2022/08/09 11:16:55;;;;;;;3.20;1.88;;;21.10;99.90;;;;;;4991980;28;20168;-71
2022/08/09 11:19:50;;;;;;;2.53;1.70;;;20.80;99.90;;;;;;4989586;28;20070;-73
2022/08/09 11:22:43;;;;;;;3.75;3.45;;;21.00;99.90;;;;;;4992525;28;20050;-71
2022/08/09 11:25:11;;;;;;;2.65;1.67;;;21.00;99.90;;;;;;4991162;28;20065;-71
2022/08/09 11:27:54;;;;;;;3.38;1.63;;;21.10;99.90;;;;;;4989829;28;20050;-73
2022/08/09 11:30:41;;;;;;;3.42;2.33;;;21.00;99.90;;;;;;4990471;28;20100;-68
2022/08/09 11:33:16;;;;;;;2.25;1.70;;;20.70;99.90;;;;;;4988232;28;20050;-71
2022/08/09 11:35:55;;;;;;;2.63;1.85;;;20.70;99.90;;;;;;4992947;28;20081;-72
2022/08/09 11:38:28;;;;;;;2.60;2.33;;;21.00;99.90;;;;;;4990782;28;20050;-71
2022/08/09 11:41:15;;;;;;;1.88;1.77;;;21.00;99.90;;;;;;4991211;28;21029;-71
2022/08/09 11:43:47;;;;;;;2.17;1.95;;;21.00;99.90;;;;;;4989267;28;20054;-69
2022/08/09 11:46:15;;;;;;;4.20;1.65;;;20.90;99.90;;;;;;4990893;28;20821;-72
2022/08/09 11:48:58;;;;;;;1.85;1.17;;;20.80;99.90;;;;;;4998949;28;20096;-69
2022/08/09 11:51:26;;;;;;;3.08;2.10;;;21.00;99.90;;;;;;4986947;28;20058;-71
2022/08/09 11:54:17;;;;;;;1.67;1.58;;;21.10;99.90;;;;;;4989092;28;20133;-72
2022/08/09 11:57:34;;;;;;;3.85;2.10;;;21.00;99.90;;;;;;4992010;28;20101;-69
2022/08/09 12:00:22;;;;;;;1.95;1.50;;;21.20;99.90;;;;;;4987753;28;20053;-71
2022/08/09 12:02:55;;;;;;;1.38;1.20;;;21.20;99.90;;;;;;4990577;28;20535;-70
2022/08/09 12:05:35;;;;;;;2.75;1.40;;;21.10;99.90;;;;;;4985649;28;20173;-70
2022/08/09 12:08:14;;;;;;;4.43;1.90;;;20.80;99.90;;;;;;4986685;28;20140;-74
2022/08/09 12:10:57;;;;;;;1.55;1.42;;;20.60;99.90;;;;;;4989417;28;20412;-70
2022/08/09 12:13:37;;;;;;;3.45;2.55;;;20.30;99.90;;;;;;4986908;28;20188;-71
2022/08/09 12:16:31;;;;;;;4.95;3.97;;;20.30;99.90;;;;;;4989198;28;20065;-71
2022/08/09 12:19:07;;;;;;;2.63;2.08;;;20.40;99.90;;;;;;4989043;28;20148;-72
2022/08/09 12:21:50;;;;;;;3.05;1.45;;;20.50;99.90;;;;;;4986961;28;20097;-73
2022/08/09 12:24:23;;;;;;;3.10;1.65;;;20.70;99.90;;;;;;4988041;28;20054;-70
2022/08/09 12:26:55;;;;;;;1.85;1.60;;;20.80;99.90;;;;;;4990864;28;20046;-71
2022/08/09 12:29:55;;;;;;;1.70;1.52;;;20.80;99.90;;;;;;4972585;28;20073;-68
2022/08/09 12:32:42;;;;;;;1.63;1.52;;;20.80;99.90;;;;;;4990771;28;20050;-72
2022/08/09 12:35:10;;;;;;;2.88;2.10;;;20.80;99.90;;;;;;4987905;28;20137;-74
2022/08/09 12:37:45;;;;;;;4.88;1.90;;;20.80;99.90;;;;;;4966536;28;20861;-71
2022/08/09 12:40:23;;;;;;;10.25;2.05;;;20.70;99.90;;;;;;4968801;28;20046;-74
2022/08/09 12:42:51;;;;;;;3.60;1.70;;;20.90;99.90;;;;;;4970721;28;20555;-71
2022/08/09 12:45:20;;;;;;;1.95;1.75;;;21.10;99.90;;;;;;4999753;28;20380;-73
2022/08/09 12:48:06;;;;;;;1.88;1.23;;;21.40;99.90;;;;;;4990291;28;20053;-71
2022/08/09 12:50:46;;;;;;;1.70;1.38;;;21.30;99.90;;;;;;4989088;28;20156;-71
2022/08/09 12:53:33;;;;;;;1.40;1.30;;;21.30;99.90;;;;;;4988986;28;21678;-72
2022/08/09 12:56:13;;;;;;;3.55;1.75;;;21.40;99.90;;;;;;4989664;28;20491;-70
2022/08/09 12:59:06;;;;;;;3.10;1.58;;;21.50;99.90;;;;;;4988956;28;20057;-73
2022/08/09 13:01:34;;;;;;;2.58;1.77;;;21.40;99.90;;;;;;4986500;28;20065;-72
2022/08/09 13:04:09;;;;;;;2.20;1.77;;;21.60;99.90;;;;;;4982062;28;20093;-72
2022/08/09 13:06:56;;;;;;;1.67;1.40;;;21.90;99.90;;;;;;4969884;28;20068;-71
2022/08/09 13:09:28;;;;;;;2.30;1.63;;;21.90;99.90;;;;;;4967539;28;20135;-68
2022/08/09 13:12:03;;;;;;;3.55;1.75;;;21.80;99.90;;;;;;4969169;28;20057;-75
2022/08/09 13:14:32;;;;;;;3.10;2.10;;;21.70;99.90;;;;;;4972395;28;20422;-74
2022/08/09 13:17:15;;;;;;;1.60;1.50;;;21.70;99.90;;;;;;4967140;28;20069;-75
2022/08/09 13:20:06;;;;;;;2.38;1.08;;;21.90;99.90;;;;;;4969452;28;20134;-71
2022/08/09 13:22:48;;;;;;;1.40;1.30;;;21.90;99.90;;;;;;4968674;28;20793;-71
2022/08/09 13:25:40;;;;;;;2.10;1.20;;;21.90;99.90;;;;;;4987696;28;20054;-72
2022/08/09 13:28:17;;;;;;;1.60;1.50;;;21.90;99.90;;;;;;4989766;28;20068;-71
2022/08/09 13:31:08;;;;;;;1.50;1.40;;;21.90;99.90;;;;;;4992865;28;20053;-71
2022/08/09 13:33:55;;;;;;;1.40;1.10;;;22.10;99.90;;;;;;4991035;28;20046;-71
2022/08/09 13:36:23;;;;;;;3.83;1.25;;;22.00;99.90;;;;;;4992495;28;20399;-70
2022/08/09 13:39:12;;;;;;;3.45;2.17;;;22.00;99.90;;;;;;4992225;28;20096;-69
2022/08/09 13:42:04;;;;;;;1.67;1.55;;;22.10;99.90;;;;;;4990374;28;20751;-72
2022/08/09 13:44:39;;;;;;;3.42;1.42;;;21.90;99.90;;;;;;4991569;28;20604;-71